createdAt,value
2023-01-17T00:00:30.324Z,98403.75
2023-01-17T00:03:33.874Z,98399.22
2023-01-17T00:06:54.534Z,98411.75
2023-01-17T00:09:59.176Z,98437.88
2023-01-17T00:13:03.583Z,98445.16
2023-01-17T00:16:06.601Z,98445.94
2023-01-17T00:19:27.461Z,98402.44
2023-01-17T00:22:50.223Z,98428.94
2023-01-17T00:26:04.997Z,98417.16
2023-01-17T00:29:07.320Z,98399.91
2023-01-17T00:32:09.619Z,98413.81
2023-01-17T00:35:11.947Z,98420.72
2023-01-17T00:38:16.558Z,98422.09
2023-01-17T00:41:18.934Z,98400.88
2023-01-17T00:44:39.551Z,98423.41
2023-01-17T00:48:03.537Z,98394.38
2023-01-17T00:51:24.741Z,98386.31
2023-01-17T00:54:45.478Z,98385.84
2023-01-17T00:58:06.169Z,98408.25
2023-01-17T01:01:26.904Z,98374.84
2023-01-17T01:04:47.932Z,98378.09
2023-01-17T01:08:09.167Z,98354.91
2023-01-17T01:11:33.987Z,98390.31
2023-01-17T01:14:54.573Z,98389.81
2023-01-17T01:18:15.161Z,98407.50
2023-01-17T01:21:35.813Z,98364.78
2023-01-17T01:24:56.567Z,98380.25
2023-01-17T01:28:25.738Z,98394.97
2023-01-17T01:31:46.421Z,98384.91
2023-01-17T01:34:48.811Z,98350.56
2023-01-17T01:37:51.146Z,98375.88
2023-01-17T01:40:56.148Z,98348.66
2023-01-17T01:43:58.585Z,98358.38
2023-01-17T01:47:01.096Z,98371.16
2023-01-17T01:50:07.200Z,98363.88
2023-01-17T01:53:10.789Z,98349.22
2023-01-17T01:56:15.324Z,98338.53
2023-01-17T01:59:20.817Z,98322.34
2023-01-17T02:02:23.290Z,98313.31
2023-01-17T02:05:29.207Z,98314.03
2023-01-17T02:08:31.687Z,98321.34
2023-01-17T02:11:36.081Z,98339.47
2023-01-17T02:14:38.440Z,98311.53
2023-01-17T02:18:37.900Z,98349.56
2023-01-17T02:22:15.757Z,98338.69
2023-01-17T02:25:26.793Z,98351.31
2023-01-17T02:29:10.945Z,98338.16
2023-01-17T02:32:38.061Z,98336.88
2023-01-17T02:35:44.752Z,98339.94
2023-01-17T02:39:09.414Z,98331.66
2023-01-17T02:42:17.939Z,98334.66
2023-01-17T02:45:20.960Z,98344.19
2023-01-17T02:48:27.549Z,98312.34
2023-01-17T02:51:42.145Z,98332.06
2023-01-17T02:54:44.465Z,98332.44
2023-01-17T02:57:58.004Z,98306.59
2023-01-17T03:01:03.135Z,98314.31
2023-01-17T03:04:44.560Z,98297.81
2023-01-17T03:07:48.420Z,98273.66
2023-01-17T03:10:50.825Z,98289.81
2023-01-17T03:13:57.300Z,98292.63
2023-01-17T03:16:59.895Z,98285.66
2023-01-17T03:20:02.348Z,98298.94
2023-01-17T03:23:04.717Z,98308.22
2023-01-17T03:26:07.198Z,98314.09
2023-01-17T03:29:09.828Z,98309.09
2023-01-17T03:32:12.289Z,98281.56
2023-01-17T03:35:14.762Z,98277.97
2023-01-17T03:38:17.361Z,98288.91
2023-01-17T03:41:19.828Z,98275.25
2023-01-17T03:44:22.456Z,98300.66
2023-01-17T03:47:24.826Z,98312.75
2023-01-17T03:50:27.278Z,98318.56
2023-01-17T03:53:29.673Z,98312.69
2023-01-17T03:56:32.011Z,98285.19
2023-01-17T03:59:34.666Z,98307.44
2023-01-17T04:02:37.455Z,98280.16
2023-01-17T04:05:39.799Z,98293.84
2023-01-17T04:08:42.498Z,98286.63
2023-01-17T04:11:45.489Z,98285.13
2023-01-17T04:14:48.224Z,98257.34
2023-01-17T04:17:50.680Z,98275.47
2023-01-17T04:20:53.050Z,98263.81
2023-01-17T04:23:55.365Z,98251.78
2023-01-17T04:26:57.794Z,98234.69
2023-01-17T04:30:00.222Z,98224.00
2023-01-17T04:33:03.056Z,98248.38
2023-01-17T04:36:06.647Z,98238.50
2023-01-17T04:39:09.084Z,98238.41
2023-01-17T04:42:11.408Z,98250.94
2023-01-17T04:45:14.415Z,98248.88
2023-01-17T04:48:17.017Z,98247.38
2023-01-17T04:51:19.590Z,98240.56
2023-01-17T04:54:22.110Z,98238.41
2023-01-17T04:57:25.248Z,98229.28
2023-01-17T05:00:27.673Z,98207.97
2023-01-17T05:03:30.535Z,98225.31
2023-01-17T05:06:32.882Z,98203.56
2023-01-17T05:09:35.464Z,98247.19
2023-01-17T05:12:37.889Z,98244.16
2023-01-17T05:15:40.533Z,98219.00
2023-01-17T05:18:42.921Z,98240.34
2023-01-17T05:21:45.282Z,98225.31
2023-01-17T05:24:48.149Z,98214.03
2023-01-17T05:27:50.813Z,98224.00
2023-01-17T05:30:53.273Z,98200.34
2023-01-17T05:33:55.788Z,98204.75
2023-01-17T05:36:59.065Z,98203.25
2023-01-17T05:40:01.447Z,98177.19
2023-01-17T05:43:04.193Z,98184.41
2023-01-17T05:46:06.642Z,98174.41
2023-01-17T05:49:09.126Z,98183.41
2023-01-17T05:52:11.500Z,98159.53
2023-01-17T05:55:13.912Z,98220.69
2023-01-17T05:58:19.714Z,98210.31
2023-01-17T06:01:22.373Z,98229.63
2023-01-17T06:04:24.772Z,98211.53
2023-01-17T06:07:27.110Z,98238.31
2023-01-17T06:10:29.739Z,98204.56
2023-01-17T06:13:32.663Z,98206.72
2023-01-17T06:16:35.340Z,98215.28
2023-01-17T06:19:37.700Z,98201.34
2023-01-17T06:22:40.079Z,98181.44
2023-01-17T06:25:45.062Z,98221.75
2023-01-17T06:28:48.032Z,98223.47
2023-01-17T06:31:50.633Z,98212.78
2023-01-17T06:34:53.004Z,98188.91
2023-01-17T06:37:58.106Z,98211.38
2023-01-17T06:41:04.408Z,98186.09
2023-01-17T06:44:07.819Z,98212.19
2023-01-17T06:47:10.242Z,98221.66
2023-01-17T06:50:14.643Z,98185.09
2023-01-17T06:53:17.232Z,98195.16
2023-01-17T06:56:20.042Z,98204.31
2023-01-17T06:59:22.398Z,98185.59
2023-01-17T07:02:25.057Z,98208.72
2023-01-17T07:05:29.131Z,98206.16
2023-01-17T07:08:33.549Z,98191.38
2023-01-17T07:11:37.419Z,98220.63
2023-01-17T07:14:40.885Z,98227.91
2023-01-17T07:17:43.971Z,98212.34
2023-01-17T07:20:46.893Z,98243.34
2023-01-17T07:23:49.441Z,98235.00
2023-01-17T07:26:51.965Z,98250.91
2023-01-17T07:29:54.555Z,98246.25
2023-01-17T07:32:56.988Z,98252.81
2023-01-17T07:36:03.982Z,98256.22
2023-01-17T07:39:06.501Z,98231.69
2023-01-17T07:42:09.329Z,98242.41
2023-01-17T07:45:14.222Z,98240.56
2023-01-17T07:48:18.344Z,98248.88
2023-01-17T07:51:20.751Z,98257.56
2023-01-17T07:54:24.166Z,98276.41
2023-01-17T07:57:26.525Z,98278.81
2023-01-17T08:00:30.236Z,98271.34
2023-01-17T08:03:40.231Z,98284.09
2023-01-17T08:06:47.532Z,98273.50
2023-01-17T08:09:50.545Z,98261.53
2023-01-17T08:12:53.033Z,98300.66
2023-01-17T08:15:55.472Z,98283.38
2023-01-17T08:18:57.980Z,98292.13
2023-01-17T08:22:00.375Z,98270.41
2023-01-17T08:25:02.841Z,98264.53
2023-01-17T08:28:05.490Z,98276.06
2023-01-17T08:31:09.715Z,98281.06
2023-01-17T08:34:14.170Z,98271.25
2023-01-17T08:37:16.572Z,98301.81
2023-01-17T08:40:19.814Z,98311.34
2023-01-17T08:43:22.445Z,98319.53
2023-01-17T08:46:24.887Z,98320.47
2023-01-17T08:49:30.448Z,98302.59
2023-01-17T08:52:33.956Z,98317.81
2023-01-17T08:55:39.627Z,98334.75
2023-01-17T08:58:42.079Z,98339.50
2023-01-17T09:01:46.002Z,98343.31
2023-01-17T09:04:49.929Z,98304.63
2023-01-17T09:07:52.328Z,98320.97
2023-01-17T09:10:54.704Z,98296.34
2023-01-17T09:13:57.100Z,98270.94
2023-01-17T09:16:59.500Z,98327.94
2023-01-17T09:20:02.415Z,98314.13
2023-01-17T09:23:04.877Z,98335.88
2023-01-17T09:26:07.741Z,98336.97
2023-01-17T09:29:10.249Z,98328.16
2023-01-17T09:32:12.952Z,98331.03
2023-01-17T09:35:15.642Z,98328.69
2023-01-17T09:38:18.105Z,98340.00
2023-01-17T09:41:27.998Z,98352.72
2023-01-17T09:44:45.010Z,98352.44
2023-01-17T09:47:53.859Z,98366.19
2023-01-17T09:51:24.137Z,98336.59
2023-01-17T09:54:36.672Z,98371.97
2023-01-17T09:58:00.298Z,98369.41
2023-01-17T10:01:15.602Z,98342.69
2023-01-17T10:04:54.905Z,98342.75
2023-01-17T10:08:04.371Z,98386.63
2023-01-17T10:11:39.295Z,98383.41
2023-01-17T10:14:55.427Z,98384.47
2023-01-17T10:18:05.381Z,98382.28
2023-01-17T10:21:19.856Z,98371.22
2023-01-17T10:24:35.630Z,98357.56
2023-01-17T10:27:41.852Z,98408.16
2023-01-17T10:30:51.831Z,98389.19
2023-01-17T10:33:58.370Z,98388.00
2023-01-17T10:37:15.799Z,98340.75
2023-01-17T10:40:29.773Z,98359.44
2023-01-17T10:43:40.892Z,98387.16
2023-01-17T10:46:55.624Z,98391.25
2023-01-17T10:49:59.423Z,98365.97
2023-01-17T10:53:16.366Z,98389.47
2023-01-17T10:56:25.735Z,98392.53
2023-01-17T10:59:31.814Z,98374.19
2023-01-17T11:02:39.960Z,98381.34
2023-01-17T11:05:43.506Z,98401.09
2023-01-17T11:08:57.337Z,98399.34
2023-01-17T11:11:59.697Z,98373.88
2023-01-17T11:15:10.846Z,98398.19
2023-01-17T11:18:19.578Z,98365.13
2023-01-17T11:21:24.345Z,98385.31
2023-01-17T11:24:33.377Z,98347.56
2023-01-17T11:27:39.526Z,98397.78
2023-01-17T11:30:52.290Z,98388.84
2023-01-17T11:34:29.477Z,98393.16
2023-01-17T11:37:32.071Z,98369.28
2023-01-17T11:40:42.828Z,98400.63
2023-01-17T11:44:20.349Z,98367.72
2023-01-17T11:47:22.663Z,98399.03
2023-01-17T11:50:26.634Z,98375.06
2023-01-17T11:53:40.424Z,98398.44
2023-01-17T11:56:46.132Z,98386.84
2023-01-17T11:59:49.086Z,98359.84
2023-01-17T12:03:06.408Z,98382.44
2023-01-17T12:06:20.239Z,98349.16
2023-01-17T12:09:35.739Z,98338.81
2023-01-17T12:13:13.240Z,98359.47
2023-01-17T12:16:34.132Z,98356.88
2023-01-17T12:20:05.918Z,98360.19
2023-01-17T12:23:28.401Z,98333.22
2023-01-17T12:26:55.080Z,98361.13
2023-01-17T12:30:26.145Z,98377.47
2023-01-17T12:33:38.809Z,98374.63
2023-01-17T12:36:49.475Z,98385.50
2023-01-17T12:40:05.133Z,98371.53
2023-01-17T12:43:25.407Z,98373.56
2023-01-17T12:46:38.464Z,98388.44
2023-01-17T12:50:00.791Z,98384.41
2023-01-17T12:53:16.426Z,98387.72
2023-01-17T12:56:28.613Z,98388.56
2023-01-17T12:59:49.446Z,98408.84
2023-01-17T13:03:24.702Z,98408.09
2023-01-17T13:06:45.733Z,98411.41
2023-01-17T13:10:03.373Z,98390.16
2023-01-17T13:13:26.728Z,98405.88
2023-01-17T13:16:59.968Z,98434.63
2023-01-17T13:20:28.841Z,98438.09
2023-01-17T13:23:44.945Z,98411.31
2023-01-17T13:26:56.479Z,98444.88
2023-01-17T13:30:22.200Z,98442.69
2023-01-17T13:33:49.029Z,98434.47
2023-01-17T13:36:54.199Z,98438.09
2023-01-17T13:40:25.181Z,98435.47
2023-01-17T13:43:39.714Z,98447.34
2023-01-17T13:47:05.126Z,98458.44
2023-01-17T13:50:36.395Z,98452.03
2023-01-17T13:53:38.858Z,98459.81
2023-01-17T13:56:41.336Z,98455.53
2023-01-17T13:59:44.057Z,98435.94
2023-01-17T14:02:48.029Z,98436.00
2023-01-17T14:05:56.932Z,98459.78
2023-01-17T14:09:08.084Z,98469.81
2023-01-17T14:12:10.452Z,98454.06
2023-01-17T14:15:31.281Z,98464.59
2023-01-17T14:18:40.047Z,98428.47
2023-01-17T14:21:42.887Z,98418.34
2023-01-17T14:25:03.897Z,98468.75
2023-01-17T14:28:21.851Z,98428.06
2023-01-17T14:31:24.764Z,98484.16
2023-01-17T14:34:27.444Z,98463.44
2023-01-17T14:37:32.662Z,98484.28
2023-01-17T14:40:38.500Z,98479.03
2023-01-17T14:43:46.315Z,98469.81
2023-01-17T14:46:49.248Z,98478.41
2023-01-17T14:50:10.910Z,98483.44
2023-01-17T14:53:13.376Z,98489.13
2023-01-17T14:56:17.748Z,98470.09
2023-01-17T14:59:22.125Z,98484.75
2023-01-17T15:02:24.991Z,98498.41
2023-01-17T15:05:30.185Z,98481.81
2023-01-17T15:08:35.443Z,98491.66
2023-01-17T15:11:38.791Z,98461.22
2023-01-17T15:14:44.490Z,98454.97
2023-01-17T15:17:46.955Z,98448.16
2023-01-17T15:20:58.032Z,98471.19
2023-01-17T15:24:07.080Z,98447.91
2023-01-17T15:27:12.753Z,98425.06
2023-01-17T15:30:16.118Z,98409.25
2023-01-17T15:33:21.110Z,98442.09
2023-01-17T15:36:30.105Z,98412.69
2023-01-17T15:39:38.934Z,98401.66
2023-01-17T15:42:43.582Z,98415.94
2023-01-17T15:45:55.977Z,98384.47
2023-01-17T15:49:17.763Z,98396.75
2023-01-17T15:52:21.573Z,98368.94
2023-01-17T15:55:29.734Z,98369.69
2023-01-17T15:58:32.222Z,98398.25
2023-01-17T16:01:34.857Z,98400.47
2023-01-17T16:04:42.331Z,98375.13
2023-01-17T16:07:44.839Z,98413.34
2023-01-17T16:10:47.317Z,98418.09
2023-01-17T16:13:50.345Z,98393.59
2023-01-17T16:16:53.519Z,98425.13
2023-01-17T16:19:56.014Z,98422.13
2023-01-17T16:23:00.329Z,98424.47
2023-01-17T16:26:02.976Z,98419.16
2023-01-17T16:29:07.588Z,98419.56
2023-01-17T16:32:10.146Z,98413.69
2023-01-17T16:35:19.130Z,98406.22
2023-01-17T16:38:21.583Z,98382.25
2023-01-17T16:41:23.902Z,98389.66
2023-01-17T16:44:26.248Z,98398.16
2023-01-17T16:47:28.622Z,98400.81
2023-01-17T16:50:31.078Z,98378.72
2023-01-17T16:53:35.405Z,98370.56
2023-01-17T16:56:37.848Z,98365.34
2023-01-17T16:59:50.433Z,98358.63
2023-01-17T17:02:53.876Z,98347.53
2023-01-17T17:06:01.078Z,98354.22
2023-01-17T17:09:03.702Z,98378.38
2023-01-17T17:12:06.736Z,98372.66
2023-01-17T17:15:10.782Z,98355.81
2023-01-17T17:18:15.167Z,98380.16
2023-01-17T17:21:17.525Z,98370.44
2023-01-17T17:24:20.239Z,98360.66
2023-01-17T17:27:26.428Z,98361.63
2023-01-17T17:30:29.070Z,98364.56
2023-01-17T17:33:31.438Z,98370.34
2023-01-17T17:36:35.282Z,98369.09
2023-01-17T17:39:38.795Z,98360.75
2023-01-17T17:42:42.860Z,98329.25
2023-01-17T17:45:45.290Z,98346.53
2023-01-17T17:48:48.679Z,98314.75
2023-01-17T17:51:51.200Z,98311.34
2023-01-17T17:54:53.749Z,98317.41
2023-01-17T17:57:56.593Z,98297.66
2023-01-17T18:01:02.732Z,98273.50
2023-01-17T18:04:07.437Z,98309.53
2023-01-17T18:07:09.963Z,98285.53
2023-01-17T18:10:12.317Z,98282.72
2023-01-17T18:13:14.829Z,98284.53
2023-01-17T18:16:26.385Z,98274.91
2023-01-17T18:19:29.835Z,98262.25
2023-01-17T18:22:33.548Z,98259.16
2023-01-17T18:25:36.548Z,98256.69
2023-01-17T18:28:38.902Z,98271.53
2023-01-17T18:31:42.737Z,98265.28
2023-01-17T18:34:47.069Z,98276.50
2023-01-17T18:37:49.637Z,98268.19
2023-01-17T18:40:52.389Z,98266.63
2023-01-17T18:43:57.770Z,98248.28
2023-01-17T18:47:04.734Z,98252.59
2023-01-17T18:50:07.430Z,98244.03
2023-01-17T18:53:10.037Z,98237.72
2023-01-17T18:56:18.856Z,98217.13
2023-01-17T18:59:23.378Z,98205.94
2023-01-17T19:02:26.992Z,98197.22
2023-01-17T19:05:29.458Z,98169.78
2023-01-17T19:08:34.004Z,98182.59
2023-01-17T19:11:36.915Z,98159.69
2023-01-17T19:14:39.986Z,98166.84
2023-01-17T19:17:42.549Z,98152.03
2023-01-17T19:20:45.959Z,98145.13
2023-01-17T19:23:48.918Z,98113.88
2023-01-17T19:26:53.239Z,98124.53
2023-01-17T19:29:55.940Z,98068.19
2023-01-17T19:32:58.587Z,98106.00
2023-01-17T19:36:03.734Z,98089.16
2023-01-17T19:39:09.488Z,98077.03
2023-01-17T19:42:15.651Z,98071.72
2023-01-17T19:45:18.319Z,98071.59
2023-01-17T19:48:22.573Z,98078.88
2023-01-17T19:51:26.830Z,98016.75
2023-01-17T19:54:29.464Z,98032.91
2023-01-17T19:57:34.993Z,98027.41
2023-01-17T20:00:46.134Z,98034.81
2023-01-17T20:03:50.103Z,98012.09
2023-01-17T20:06:53.570Z,98025.69
2023-01-17T20:09:56.140Z,98016.94
2023-01-17T20:12:58.731Z,97996.56
2023-01-17T20:16:03.840Z,97982.34
2023-01-17T20:19:06.733Z,97975.97
2023-01-17T20:22:09.302Z,97950.06
2023-01-17T20:25:12.305Z,97986.91
2023-01-17T20:28:14.846Z,97952.88
2023-01-17T20:31:27.445Z,97965.28
2023-01-17T20:34:31.497Z,97960.44
2023-01-17T20:37:34.173Z,97953.63
2023-01-17T20:40:36.833Z,97958.75
2023-01-17T20:43:40.073Z,97948.44
2023-01-17T20:46:43.063Z,97921.03
2023-01-17T20:49:45.657Z,97922.66
2023-01-17T20:52:51.143Z,97882.22
2023-01-17T20:55:57.469Z,97886.91
2023-01-17T20:59:03.928Z,97839.03
2023-01-17T21:02:09.995Z,97839.13
2023-01-17T21:05:12.940Z,97840.56
2023-01-17T21:08:17.767Z,97818.41
2023-01-17T21:11:23.693Z,97781.09
2023-01-17T21:14:26.443Z,97777.09
2023-01-17T21:17:29.072Z,97768.63
2023-01-17T21:20:34.717Z,97736.69
2023-01-17T21:23:39.035Z,97760.41
2023-01-17T21:26:44.435Z,97745.69
2023-01-17T21:29:47.528Z,97765.03
2023-01-17T21:32:49.995Z,97770.91
2023-01-17T21:35:52.970Z,97772.66
2023-01-17T21:38:57.802Z,97735.44
2023-01-17T21:42:00.602Z,97700.66
2023-01-17T21:45:03.008Z,97679.91
2023-01-17T21:48:12.070Z,97676.69
2023-01-17T21:51:14.710Z,97681.78
2023-01-17T21:54:17.060Z,97687.72
2023-01-17T21:57:40.251Z,97680.13
2023-01-17T22:00:43.395Z,97702.75
2023-01-17T22:03:52.740Z,97709.47
2023-01-17T22:06:55.101Z,97674.03
2023-01-17T22:09:57.557Z,97683.72
2023-01-17T22:13:00.036Z,97661.38
2023-01-17T22:16:04.727Z,97634.09
2023-01-17T22:19:08.160Z,97672.69
2023-01-17T22:22:10.507Z,97654.47
2023-01-17T22:25:12.852Z,97638.06
2023-01-17T22:28:15.267Z,97652.44
2023-01-17T22:31:19.277Z,97655.56
2023-01-17T22:34:22.848Z,97643.78
2023-01-17T22:37:25.697Z,97646.91
2023-01-17T22:40:28.768Z,97632.66
2023-01-17T22:43:31.074Z,97634.47
2023-01-17T22:46:37.180Z,97629.94
2023-01-17T22:49:39.652Z,97625.59
2023-01-17T22:52:41.983Z,97626.06
2023-01-17T22:55:44.344Z,97622.78
2023-01-17T22:58:49.090Z,97640.41
2023-01-17T23:01:51.937Z,97644.66
2023-01-17T23:04:54.370Z,97650.88
2023-01-17T23:07:57.192Z,97642.56
2023-01-17T23:11:37.800Z,97624.69
2023-01-17T23:14:58.737Z,97617.44
2023-01-17T23:18:19.473Z,97625.22
2023-01-17T23:21:22.178Z,97610.19
2023-01-17T23:24:24.750Z,97621.34
2023-01-17T23:28:05.336Z,97586.97
2023-01-17T23:31:10.272Z,97621.53
2023-01-17T23:34:12.596Z,97598.72
2023-01-17T23:37:15.187Z,97595.81
2023-01-17T23:40:18.199Z,97621.28
2023-01-17T23:43:23.628Z,97615.41
2023-01-17T23:46:26.568Z,97620.47
2023-01-17T23:49:31.345Z,97606.59
2023-01-17T23:52:33.748Z,97622.78
2023-01-17T23:55:41.944Z,97614.38
2023-01-17T23:58:44.510Z,97631.00
